createdAt,value
2022-08-04T00:01:04.162Z,17.50
2022-08-04T00:02:37.734Z,9.70
2022-08-04T00:04:08.872Z,8.97
2022-08-04T00:05:52.571Z,16.40
2022-08-04T00:07:44.480Z,12.53
2022-08-04T00:09:42.993Z,9.87
2022-08-04T00:11:09.041Z,12.37
2022-08-04T00:12:43.344Z,14.37
2022-08-04T00:14:12.631Z,8.23
2022-08-04T00:15:35.601Z,8.60
2022-08-04T00:16:57.919Z,18.90
2022-08-04T00:18:26.642Z,14.10
2022-08-04T00:19:51.661Z,19.93
2022-08-04T00:21:16.645Z,8.70
2022-08-04T00:22:43.250Z,12.53
2022-08-04T00:24:11.116Z,9.40
2022-08-04T00:25:38.676Z,13.93
2022-08-04T00:27:01.125Z,13.40
2022-08-04T00:28:24.499Z,11.13
2022-08-04T00:29:47.883Z,15.33
2022-08-04T00:31:16.481Z,7.03
2022-08-04T00:32:43.940Z,10.70
2022-08-04T00:34:06.271Z,14.67
2022-08-04T00:35:29.198Z,8.27
2022-08-04T00:36:53.438Z,9.97
2022-08-04T00:38:19.490Z,13.30
2022-08-04T00:39:42.884Z,10.27
2022-08-04T00:41:07.879Z,14.27
2022-08-04T00:42:58.558Z,10.60
2022-08-04T00:44:42.915Z,13.00
2022-08-04T00:46:23.607Z,14.73
2022-08-04T00:48:10.127Z,8.10
2022-08-04T00:49:51.203Z,15.10
2022-08-04T00:51:25.115Z,13.80
2022-08-04T00:52:47.163Z,9.47
2022-08-04T00:54:31.937Z,10.30
2022-08-04T00:56:25.447Z,11.90
2022-08-04T00:57:59.584Z,11.73
2022-08-04T00:59:30.535Z,17.50
2022-08-04T01:01:00.822Z,11.50
2022-08-04T01:02:51.181Z,13.10
2022-08-04T01:04:22.037Z,12.47
2022-08-04T01:06:01.412Z,8.90
2022-08-04T01:07:54.506Z,11.43
2022-08-04T01:09:31.609Z,10.37
2022-08-04T01:11:13.790Z,16.73
2022-08-04T01:13:15.543Z,10.50
2022-08-04T01:14:55.719Z,13.83
2022-08-04T01:16:23.847Z,11.60
2022-08-04T01:18:07.405Z,12.17
2022-08-04T01:19:55.208Z,17.03
2022-08-04T01:21:20.337Z,10.17
2022-08-04T01:23:09.747Z,11.40
2022-08-04T01:24:43.971Z,8.50
2022-08-04T01:26:58.003Z,10.43
2022-08-04T01:28:30.723Z,11.37
2022-08-04T01:29:58.996Z,11.90
2022-08-04T01:31:34.349Z,15.37
2022-08-04T01:33:04.439Z,15.20
2022-08-04T01:34:37.295Z,10.83
2022-08-04T01:36:06.290Z,9.13
2022-08-04T01:38:00.883Z,8.77
2022-08-04T01:39:41.293Z,9.40
2022-08-04T01:41:08.981Z,12.90
2022-08-04T01:42:36.310Z,11.03
2022-08-04T01:44:01.601Z,12.23
2022-08-04T01:45:25.205Z,11.23
2022-08-04T01:46:50.675Z,10.83
2022-08-04T01:48:14.306Z,6.73
2022-08-04T01:49:40.539Z,10.67
2022-08-04T01:51:08.959Z,9.90
2022-08-04T01:52:32.206Z,11.13
2022-08-04T01:53:54.529Z,7.93
2022-08-04T01:55:18.110Z,13.63
2022-08-04T01:56:42.371Z,10.67
2022-08-04T01:58:05.663Z,8.30
2022-08-04T01:59:30.604Z,13.20
2022-08-04T02:01:05.130Z,9.77
2022-08-04T02:02:32.788Z,11.37
2022-08-04T02:04:20.078Z,10.80
2022-08-04T02:06:03.786Z,8.73
2022-08-04T02:07:33.558Z,8.43
2022-08-04T02:08:58.353Z,12.73
2022-08-04T02:10:49.505Z,7.73
2022-08-04T02:12:33.599Z,9.07
2022-08-04T02:14:40.368Z,9.57
2022-08-04T02:16:09.396Z,7.67
2022-08-04T02:17:43.556Z,8.93
2022-08-04T02:19:55.458Z,9.70
2022-08-04T02:21:20.223Z,9.90
2022-08-04T02:22:58.435Z,12.80
2022-08-04T02:24:25.712Z,13.43
2022-08-04T02:25:55.760Z,12.40
2022-08-04T02:27:25.212Z,8.20
2022-08-04T02:28:48.747Z,17.70
2022-08-04T02:30:11.396Z,10.23
2022-08-04T02:31:37.710Z,12.40
2022-08-04T02:33:04.175Z,8.20
2022-08-04T02:34:48.371Z,13.70
2022-08-04T02:36:18.881Z,9.60
2022-08-04T02:37:48.226Z,10.03
2022-08-04T02:39:12.530Z,10.37
2022-08-04T02:40:35.736Z,9.73
2022-08-04T02:42:00.115Z,12.40
2022-08-04T02:43:50.679Z,12.27
2022-08-04T02:45:08.876Z,9.53
2022-08-04T02:46:35.212Z,10.20
2022-08-04T02:48:23.699Z,8.10
2022-08-04T02:49:47.040Z,11.00
2022-08-04T02:51:13.160Z,8.67
2022-08-04T02:52:36.614Z,10.00
2022-08-04T02:54:00.207Z,9.60
2022-08-04T02:55:23.389Z,9.63
2022-08-04T02:56:46.689Z,11.03
2022-08-04T02:58:14.468Z,9.90
2022-08-04T03:00:10.947Z,10.53
2022-08-04T03:01:33.985Z,9.07
2022-08-04T03:03:20.297Z,10.77
2022-08-04T03:05:11.459Z,8.40
2022-08-04T03:06:45.356Z,14.27
2022-08-04T03:08:42.481Z,10.67
2022-08-04T03:10:23.419Z,11.40
2022-08-04T03:12:04.898Z,8.07
2022-08-04T03:13:57.736Z,7.60
2022-08-04T03:15:53.437Z,9.87
2022-08-04T03:17:27.544Z,11.20
2022-08-04T03:19:07.535Z,13.10
2022-08-04T03:20:51.439Z,9.83
2022-08-04T03:22:32.542Z,11.57
2022-08-04T03:24:20.345Z,8.50
2022-08-04T03:26:12.770Z,10.90
2022-08-04T03:27:47.138Z,11.60
2022-08-04T03:29:36.143Z,12.20
2022-08-04T03:31:08.210Z,15.03
2022-08-04T03:32:39.287Z,12.40
2022-08-04T03:34:19.817Z,12.30
2022-08-04T03:36:31.821Z,16.60
2022-08-04T03:38:10.723Z,9.57
2022-08-04T03:40:16.908Z,10.33
2022-08-04T03:42:15.876Z,15.90
2022-08-04T03:43:57.581Z,13.23
2022-08-04T03:45:40.421Z,12.93
2022-08-04T03:47:44.222Z,11.17
2022-08-04T03:49:31.010Z,11.77
2022-08-04T03:51:43.830Z,11.93
2022-08-04T03:53:30.136Z,13.40
2022-08-04T03:55:24.775Z,10.50
2022-08-04T03:57:09.711Z,9.90
2022-08-04T03:58:59.247Z,11.27
2022-08-04T04:00:43.009Z,12.37
2022-08-04T04:02:42.806Z,10.70
2022-08-04T04:04:35.544Z,12.87
2022-08-04T04:06:27.005Z,12.20
2022-08-04T04:08:19.161Z,17.27
2022-08-04T04:09:57.888Z,12.20
2022-08-04T04:11:32.018Z,9.63
2022-08-04T04:13:12.508Z,11.67
2022-08-04T04:14:43.977Z,15.70
2022-08-04T04:16:24.736Z,9.83
2022-08-04T04:18:07.733Z,13.73
2022-08-04T04:20:01.966Z,7.33
2022-08-04T04:21:29.182Z,6.07
2022-08-04T04:23:03.727Z,12.90
2022-08-04T04:24:50.605Z,8.77
2022-08-04T04:26:27.872Z,6.90
2022-08-04T04:28:43.683Z,5.40
2022-08-04T04:30:18.906Z,5.57
2022-08-04T04:31:40.964Z,7.10
2022-08-04T04:33:21.429Z,6.57
2022-08-04T04:35:09.159Z,9.00
2022-08-04T04:36:53.333Z,5.73
2022-08-04T04:38:44.875Z,6.50
2022-08-04T04:40:34.044Z,7.10
2022-08-04T04:42:07.388Z,6.70
2022-08-04T04:43:57.822Z,4.50
2022-08-04T04:45:41.890Z,4.50
2022-08-04T04:47:13.830Z,4.33
2022-08-04T04:48:44.772Z,6.90
2022-08-04T04:50:14.498Z,5.50
2022-08-04T04:51:45.285Z,8.60
2022-08-04T04:53:38.636Z,6.33
2022-08-04T04:55:07.637Z,4.20
2022-08-04T04:56:53.680Z,4.10
2022-08-04T04:58:18.875Z,3.80
2022-08-04T04:59:59.607Z,3.83
2022-08-04T05:01:42.760Z,3.57
2022-08-04T05:03:32.277Z,6.37
2022-08-04T05:05:19.410Z,5.77
2022-08-04T05:07:18.230Z,5.50
2022-08-04T05:08:46.780Z,8.97
2022-08-04T05:10:47.724Z,8.37
2022-08-04T05:14:30.928Z,6.40
2022-08-04T05:14:38.594Z,3.33
2022-08-04T05:15:56.632Z,4.30
2022-08-04T05:17:44.923Z,3.30
2022-08-04T05:19:34.232Z,5.00
2022-08-04T05:21:05.995Z,7.30
2022-08-04T05:22:48.908Z,5.67
2022-08-04T05:24:14.952Z,7.53
2022-08-04T05:25:58.805Z,2.93
2022-08-04T05:27:29.966Z,7.90
2022-08-04T05:28:57.592Z,3.33
2022-08-04T05:30:21.114Z,5.10
2022-08-04T05:31:49.894Z,7.93
2022-08-04T05:33:13.878Z,4.57
2022-08-04T05:34:44.720Z,7.27
2022-08-04T05:36:17.046Z,3.17
2022-08-04T05:37:48.409Z,3.83
2022-08-04T05:39:33.859Z,4.13
2022-08-04T05:40:57.254Z,2.23
2022-08-04T05:42:20.736Z,4.20
2022-08-04T05:43:46.916Z,3.53
2022-08-04T05:45:10.287Z,3.72
2022-08-04T05:46:32.690Z,3.07
2022-08-04T05:47:55.228Z,2.67
2022-08-04T05:49:21.891Z,3.13
2022-08-04T05:50:46.510Z,2.10
2022-08-04T05:52:11.351Z,3.00
2022-08-04T05:53:35.077Z,4.67
2022-08-04T05:54:58.898Z,6.50
2022-08-04T05:56:22.130Z,2.43
2022-08-04T05:57:46.864Z,4.33
2022-08-04T05:59:11.415Z,4.40
2022-08-04T06:00:41.187Z,3.15
2022-08-04T06:02:05.398Z,2.90
2022-08-04T06:03:30.349Z,3.85
2022-08-04T06:04:53.347Z,3.00
2022-08-04T06:06:17.590Z,2.80
2022-08-04T06:08:12.061Z,2.30
2022-08-04T06:09:22.112Z,2.37
2022-08-04T06:10:46.514Z,2.50
2022-08-04T06:12:15.546Z,4.23
2022-08-04T06:13:50.954Z,2.93
2022-08-04T06:15:19.513Z,4.30
2022-08-04T06:16:51.464Z,3.03
2022-08-04T06:18:33.652Z,2.30
2022-08-04T06:20:19.353Z,2.70
2022-08-04T06:21:44.609Z,2.90
2022-08-04T06:23:10.723Z,3.77
2022-08-04T06:24:35.592Z,7.13
2022-08-04T06:26:00.605Z,2.83
2022-08-04T06:27:23.857Z,4.77
2022-08-04T06:28:51.192Z,4.57
2022-08-04T06:30:19.154Z,3.80
2022-08-04T06:32:30.238Z,4.27
2022-08-04T06:33:33.623Z,2.60
2022-08-04T06:35:19.575Z,3.10
2022-08-04T06:36:42.632Z,5.47
2022-08-04T06:38:05.508Z,4.97
2022-08-04T06:39:29.270Z,5.73
2022-08-04T06:40:53.450Z,3.93
2022-08-04T06:42:22.430Z,8.83
2022-08-04T06:43:46.954Z,3.37
2022-08-04T06:45:11.336Z,10.00
2022-08-04T06:46:35.351Z,3.70
2022-08-04T06:47:59.424Z,5.73
2022-08-04T06:49:22.733Z,5.80
2022-08-04T06:51:24.663Z,15.53
2022-08-04T06:52:30.369Z,4.77
2022-08-04T06:53:54.813Z,5.63
2022-08-04T06:55:16.946Z,4.93
2022-08-04T06:56:40.445Z,5.17
2022-08-04T06:58:03.835Z,6.07
2022-08-04T06:59:27.482Z,5.17
2022-08-04T07:00:50.749Z,9.90
2022-08-04T07:02:16.899Z,4.53
2022-08-04T07:03:39.341Z,3.53
2022-08-04T07:05:07.266Z,6.17
2022-08-04T07:06:30.169Z,7.00
2022-08-04T07:07:57.225Z,8.13
2022-08-04T07:09:20.631Z,5.60
2022-08-04T07:10:43.660Z,4.77
2022-08-04T07:12:09.616Z,5.63
2022-08-04T07:13:32.701Z,5.27
2022-08-04T07:14:55.287Z,4.13
2022-08-04T07:16:20.156Z,6.83
2022-08-04T07:17:53.037Z,3.50
2022-08-04T07:19:18.938Z,5.20
2022-08-04T07:20:45.535Z,7.37
2022-08-04T07:22:18.879Z,8.43
2022-08-04T07:23:48.418Z,3.70
2022-08-04T07:25:13.095Z,3.17
2022-08-04T07:26:35.365Z,4.47
2022-08-04T07:27:57.432Z,7.17
2022-08-04T07:29:19.619Z,3.37
2022-08-04T07:30:44.888Z,4.50
2022-08-04T07:32:07.454Z,3.40
2022-08-04T07:33:31.915Z,3.93
2022-08-04T07:34:55.168Z,3.53
2022-08-04T07:36:18.596Z,4.77
2022-08-04T07:37:41.110Z,5.67
2022-08-04T07:39:03.533Z,2.97
2022-08-04T07:40:25.924Z,4.27
2022-08-04T07:41:49.137Z,5.57
2022-08-04T07:43:11.360Z,5.70
2022-08-04T07:44:35.522Z,3.60
2022-08-04T07:45:57.844Z,5.10
2022-08-04T07:47:25.142Z,4.80
2022-08-04T07:48:48.411Z,4.87
2022-08-04T07:50:12.414Z,10.73
2022-08-04T07:51:36.503Z,6.47
2022-08-04T07:53:22.711Z,6.20
2022-08-04T07:54:41.733Z,3.10
2022-08-04T07:56:04.215Z,6.07
2022-08-04T07:57:41.639Z,7.10
2022-08-04T07:59:05.144Z,6.60
2022-08-04T08:00:27.449Z,2.80
2022-08-04T08:01:50.151Z,4.60
2022-08-04T08:03:12.670Z,17.47
2022-08-04T08:04:35.310Z,4.33
2022-08-04T08:06:31.206Z,2.73
2022-08-04T08:07:50.422Z,8.80
2022-08-04T08:09:21.168Z,7.63
2022-08-04T08:10:47.329Z,2.40
2022-08-04T08:12:37.592Z,2.50
2022-08-04T08:13:54.026Z,3.77
2022-08-04T08:15:16.538Z,6.80
2022-08-04T08:16:39.006Z,8.33
2022-08-04T08:18:01.266Z,3.47
2022-08-04T08:19:23.414Z,4.90
2022-08-04T08:20:46.845Z,6.23
2022-08-04T08:22:11.886Z,4.00
2022-08-04T08:23:36.007Z,3.53
2022-08-04T08:24:58.329Z,3.90
2022-08-04T08:26:20.522Z,9.50
2022-08-04T08:27:55.992Z,5.27
2022-08-04T08:29:19.831Z,4.30
2022-08-04T08:30:42.047Z,5.20
2022-08-04T08:32:08.799Z,3.83
2022-08-04T08:33:31.365Z,3.03
2022-08-04T08:34:53.842Z,7.03
2022-08-04T08:36:37.825Z,2.20
2022-08-04T08:38:05.302Z,2.23
2022-08-04T08:40:05.372Z,6.80
2022-08-04T08:41:57.818Z,2.80
2022-08-04T08:44:05.869Z,2.60
2022-08-04T08:45:58.183Z,1.90
2022-08-04T08:48:05.390Z,2.33
2022-08-04T08:50:02.791Z,6.87
2022-08-04T08:51:47.980Z,4.93
2022-08-04T08:53:17.277Z,2.80
2022-08-04T08:55:32.734Z,6.53
2022-08-04T08:57:15.852Z,2.90
2022-08-04T08:59:02.536Z,5.17
2022-08-04T09:00:39.532Z,12.70
2022-08-04T09:02:07.253Z,2.90
2022-08-04T09:04:06.838Z,2.47
2022-08-04T09:06:05.384Z,2.73
2022-08-04T09:07:46.177Z,1.97
2022-08-04T09:09:21.022Z,5.17
2022-08-04T09:10:50.751Z,4.40
2022-08-04T09:12:25.838Z,3.80
2022-08-04T09:14:05.508Z,2.43
2022-08-04T09:15:41.655Z,3.43
2022-08-04T09:17:20.749Z,5.13
2022-08-04T09:19:06.402Z,6.77
2022-08-04T09:20:50.159Z,3.33
2022-08-04T09:22:24.690Z,8.37
2022-08-04T09:24:35.054Z,7.10
2022-08-04T09:26:20.954Z,2.40
2022-08-04T09:27:51.710Z,6.57
2022-08-04T09:29:20.549Z,2.80
2022-08-04T09:30:59.306Z,3.37
2022-08-04T09:32:39.548Z,1.70
2022-08-04T09:34:11.795Z,2.03
2022-08-04T09:35:47.864Z,4.33
2022-08-04T09:37:45.819Z,3.03
2022-08-04T09:39:33.960Z,3.30
2022-08-04T09:41:20.551Z,3.73
2022-08-04T09:43:07.895Z,7.90
2022-08-04T09:45:02.725Z,3.23
2022-08-04T09:46:39.177Z,4.23
2022-08-04T09:48:09.523Z,4.30
2022-08-04T09:49:42.486Z,4.10
2022-08-04T09:51:17.040Z,3.77
2022-08-04T09:52:57.958Z,2.90
2022-08-04T09:54:30.333Z,3.83
2022-08-04T09:56:03.437Z,4.73
2022-08-04T09:57:31.903Z,3.53
2022-08-04T09:59:36.155Z,7.90
2022-08-04T10:01:04.309Z,6.93
2022-08-04T10:02:28.229Z,18.47
2022-08-04T10:04:02.023Z,6.00
2022-08-04T10:05:44.755Z,4.13
2022-08-04T10:07:28.275Z,4.00
2022-08-04T10:09:17.062Z,8.23
2022-08-04T10:11:07.975Z,3.67
2022-08-04T10:12:47.284Z,1.77
2022-08-04T10:14:30.644Z,3.30
2022-08-04T10:16:09.725Z,2.17
2022-08-04T10:17:54.260Z,5.87
2022-08-04T10:19:53.599Z,4.57
2022-08-04T10:21:27.958Z,2.40
2022-08-04T10:23:12.348Z,2.37
2022-08-04T10:25:37.710Z,4.03
2022-08-04T10:27:00.051Z,4.30
2022-08-04T10:28:23.913Z,7.83
2022-08-04T10:29:48.110Z,1.80
2022-08-04T10:31:17.191Z,1.80
2022-08-04T10:33:09.612Z,2.50
2022-08-04T10:34:42.587Z,1.97
2022-08-04T10:36:09.287Z,4.33
2022-08-04T10:37:59.158Z,4.93
2022-08-04T10:39:42.671Z,1.40
2022-08-04T10:41:25.366Z,5.53
2022-08-04T10:43:20.942Z,2.87
2022-08-04T10:45:09.716Z,2.80
2022-08-04T10:46:37.445Z,1.73
2022-08-04T10:48:06.687Z,4.27
2022-08-04T10:49:47.005Z,3.43
2022-08-04T10:51:58.876Z,4.57
2022-08-04T10:53:20.943Z,1.57
2022-08-04T10:54:48.128Z,2.50
2022-08-04T10:56:23.823Z,1.80
2022-08-04T10:57:51.742Z,3.23
2022-08-04T10:59:24.685Z,1.97
2022-08-04T11:00:49.337Z,1.70
2022-08-04T11:02:27.202Z,2.10
2022-08-04T11:03:56.302Z,1.90
2022-08-04T11:05:44.398Z,1.70
2022-08-04T11:07:10.498Z,2.90
2022-08-04T11:08:50.612Z,4.57
2022-08-04T11:10:25.488Z,2.33
2022-08-04T11:12:01.598Z,1.53
2022-08-04T11:13:29.819Z,1.93
2022-08-04T11:15:16.926Z,2.87
2022-08-04T11:16:49.696Z,3.90
2022-08-04T11:18:25.948Z,2.40
2022-08-04T11:20:33.635Z,4.23
2022-08-04T11:21:58.740Z,2.87
2022-08-04T11:23:26.789Z,2.50
2022-08-04T11:25:12.041Z,2.73
2022-08-04T11:26:58.334Z,2.60
2022-08-04T11:28:58.501Z,4.20
2022-08-04T11:30:36.203Z,3.20
2022-08-04T11:32:02.673Z,1.43
2022-08-04T11:33:45.494Z,1.93
2022-08-04T11:35:12.428Z,2.90
2022-08-04T11:36:38.845Z,1.80
2022-08-04T11:38:29.121Z,2.60
2022-08-04T11:40:07.198Z,2.27
2022-08-04T11:41:46.965Z,3.03
2022-08-04T11:44:01.362Z,4.83
2022-08-04T11:45:24.626Z,2.27
2022-08-04T11:46:55.440Z,1.90
2022-08-04T11:48:23.898Z,2.80
2022-08-04T11:49:57.671Z,5.40
2022-08-04T11:51:22.838Z,4.70
2022-08-04T11:52:46.342Z,1.47
2022-08-04T11:54:10.065Z,2.50
2022-08-04T11:56:08.279Z,1.93
2022-08-04T11:57:16.150Z,1.73
2022-08-04T11:58:38.805Z,1.73
2022-08-04T12:00:07.237Z,3.20
2022-08-04T12:02:07.147Z,1.50
2022-08-04T12:04:03.178Z,1.77
2022-08-04T12:05:36.790Z,1.60
2022-08-04T12:07:30.501Z,2.70
2022-08-04T12:09:15.283Z,2.13
2022-08-04T12:10:58.876Z,2.07
2022-08-04T12:12:38.094Z,1.60
2022-08-04T12:14:33.778Z,2.10
2022-08-04T12:16:10.837Z,1.53
2022-08-04T12:17:52.946Z,2.90
2022-08-04T12:19:39.338Z,4.07
2022-08-04T12:21:31.142Z,2.67
2022-08-04T12:22:56.213Z,2.67
2022-08-04T12:24:28.392Z,3.57
2022-08-04T12:25:54.864Z,1.90
2022-08-04T12:27:33.580Z,2.17
2022-08-04T12:29:16.416Z,1.80
2022-08-04T12:30:59.158Z,3.73
2022-08-04T12:32:32.995Z,3.93
2022-08-04T12:34:05.239Z,1.57
2022-08-04T12:36:05.189Z,2.70
2022-08-04T12:37:22.939Z,10.73
2022-08-04T12:38:52.568Z,2.17
2022-08-04T12:40:29.939Z,1.35
2022-08-04T12:42:21.325Z,3.00
2022-08-04T12:43:44.564Z,1.60
2022-08-04T12:45:10.955Z,3.10
2022-08-04T12:46:34.963Z,1.70
2022-08-04T12:48:00.769Z,2.08
2022-08-04T12:49:24.829Z,1.80
2022-08-04T12:50:50.056Z,2.70
2022-08-04T12:52:15.084Z,1.40
2022-08-04T12:53:51.142Z,1.30
2022-08-04T12:55:14.906Z,1.40
2022-08-04T12:56:37.938Z,1.45
2022-08-04T12:58:03.206Z,3.63
2022-08-04T12:59:25.516Z,5.20
2022-08-04T13:00:56.159Z,1.40
2022-08-04T13:02:27.892Z,4.33
2022-08-04T13:03:54.878Z,1.97
2022-08-04T13:05:17.983Z,2.40
2022-08-04T13:06:42.356Z,1.60
2022-08-04T13:08:07.455Z,2.20
2022-08-04T13:09:33.989Z,2.97
2022-08-04T13:10:58.812Z,1.60
2022-08-04T13:12:31.924Z,3.73
2022-08-04T13:14:17.554Z,2.73
2022-08-04T13:15:47.241Z,2.60
2022-08-04T13:17:19.990Z,1.60
2022-08-04T13:18:49.330Z,3.30
2022-08-04T13:20:13.117Z,1.70
2022-08-04T13:22:01.787Z,2.20
2022-08-04T13:23:27.645Z,1.57
2022-08-04T13:26:40.399Z,1.90
2022-08-04T13:27:06.090Z,2.17
2022-08-04T13:28:29.189Z,2.10
2022-08-04T13:30:00.267Z,2.80
2022-08-04T13:31:35.893Z,1.60
2022-08-04T13:33:02.468Z,4.97
2022-08-04T13:34:24.843Z,2.60
2022-08-04T13:35:56.082Z,2.07
2022-08-04T13:37:22.187Z,1.80
2022-08-04T13:38:55.861Z,3.40
2022-08-04T13:40:23.245Z,6.00
2022-08-04T13:41:58.884Z,3.23
2022-08-04T13:44:16.458Z,1.40
2022-08-04T13:45:35.081Z,2.43
2022-08-04T13:47:01.565Z,1.98
2022-08-04T13:48:32.632Z,6.55
2022-08-04T13:50:27.170Z,2.90
2022-08-04T13:51:59.209Z,2.38
2022-08-04T13:53:22.106Z,2.17
2022-08-04T13:54:47.025Z,4.85
2022-08-04T13:56:10.705Z,2.22
2022-08-04T13:57:43.122Z,5.18
2022-08-04T13:59:13.506Z,2.90
2022-08-04T14:01:04.157Z,2.60
2022-08-04T14:02:42.236Z,3.13
2022-08-04T14:04:10.095Z,4.90
2022-08-04T14:05:36.969Z,4.40
2022-08-04T14:07:20.925Z,2.37
2022-08-04T14:08:57.195Z,4.00
2022-08-04T14:10:19.950Z,2.40
2022-08-04T14:12:10.801Z,1.90
2022-08-04T14:13:41.137Z,2.20
2022-08-04T14:15:04.505Z,2.27
2022-08-04T14:16:26.661Z,3.83
2022-08-04T14:17:48.812Z,3.67
2022-08-04T14:19:10.956Z,4.38
2022-08-04T14:20:33.178Z,8.53
2022-08-04T14:21:55.532Z,6.03
2022-08-04T14:23:17.703Z,5.33
2022-08-04T14:24:39.782Z,4.80
2022-08-04T14:26:31.579Z,2.80
2022-08-04T14:27:57.381Z,2.25
2022-08-04T14:29:26.402Z,5.28
2022-08-04T14:30:51.096Z,2.00
2022-08-04T14:32:14.890Z,3.30
2022-08-04T14:34:01.794Z,1.85
2022-08-04T14:35:45.533Z,4.22
2022-08-04T14:37:16.221Z,2.15
2022-08-04T14:38:47.947Z,2.10
2022-08-04T14:40:30.993Z,3.42
2022-08-04T14:41:53.405Z,2.85
2022-08-04T14:43:19.278Z,2.28
2022-08-04T14:44:58.949Z,2.20
2022-08-04T14:46:22.687Z,4.40
2022-08-04T14:47:53.317Z,1.73
2022-08-04T14:49:15.516Z,4.40
2022-08-04T14:50:43.081Z,1.90
2022-08-04T14:52:05.388Z,2.53
2022-08-04T14:53:29.619Z,2.38
2022-08-04T14:54:51.948Z,5.30
2022-08-04T14:56:37.379Z,2.43
2022-08-04T14:58:34.309Z,4.70
2022-08-04T14:59:44.154Z,1.70
2022-08-04T15:01:22.358Z,2.10
2022-08-04T15:02:44.645Z,4.60
2022-08-04T15:04:07.419Z,1.50
2022-08-04T15:06:00.660Z,5.60
2022-08-04T15:07:13.399Z,2.73
2022-08-04T15:08:39.339Z,1.50
2022-08-04T15:10:01.774Z,1.60
2022-08-04T15:11:25.009Z,2.30
2022-08-04T15:12:47.379Z,1.70
2022-08-04T15:14:09.782Z,3.60
2022-08-04T15:16:06.106Z,8.20
2022-08-04T15:17:30.650Z,2.20
2022-08-04T15:18:54.892Z,3.93
2022-08-04T15:20:19.943Z,3.10
2022-08-04T15:21:42.102Z,2.60
2022-08-04T15:23:10.169Z,1.57
2022-08-04T15:24:33.137Z,2.40
2022-08-04T15:25:58.852Z,1.60
2022-08-04T15:27:21.940Z,2.77
2022-08-04T15:28:50.362Z,1.50
2022-08-04T15:30:15.014Z,3.00
2022-08-04T15:32:07.082Z,3.70
2022-08-04T15:33:24.663Z,1.93
2022-08-04T15:35:03.348Z,2.50
2022-08-04T15:36:34.774Z,1.60
2022-08-04T15:38:05.658Z,1.73
2022-08-04T15:39:55.735Z,1.60
2022-08-04T15:41:33.736Z,1.70
2022-08-04T15:43:33.801Z,3.60
2022-08-04T15:45:04.371Z,1.50
2022-08-04T15:46:46.364Z,2.28
2022-08-04T15:48:11.509Z,2.13
2022-08-04T15:49:33.761Z,1.63
2022-08-04T15:50:55.960Z,1.60
2022-08-04T15:52:18.457Z,2.58
2022-08-04T15:54:03.161Z,2.30
2022-08-04T15:55:40.051Z,9.95
2022-08-04T15:57:03.649Z,4.70
2022-08-04T15:58:26.225Z,4.13
2022-08-04T16:00:12.575Z,1.70
2022-08-04T16:01:36.945Z,1.75
2022-08-04T16:03:58.918Z,5.40
2022-08-04T16:05:18.627Z,1.77
2022-08-04T16:06:42.044Z,1.73
2022-08-04T16:08:14.541Z,2.00
2022-08-04T16:09:45.308Z,1.77
2022-08-04T16:11:08.213Z,2.95
2022-08-04T16:12:55.286Z,2.55
2022-08-04T16:14:18.050Z,2.83
2022-08-04T16:15:41.452Z,7.03
2022-08-04T16:17:17.113Z,1.80
2022-08-04T16:18:41.165Z,4.40
2022-08-04T16:20:10.941Z,2.37
2022-08-04T16:21:53.460Z,3.60
2022-08-04T16:23:31.716Z,2.20
2022-08-04T16:24:57.809Z,5.17
2022-08-04T16:26:38.238Z,2.60
2022-08-04T16:28:07.605Z,2.20
2022-08-04T16:29:35.555Z,2.53
2022-08-04T16:31:02.213Z,2.03
2022-08-04T16:32:26.304Z,2.03
2022-08-04T16:33:49.110Z,3.50
2022-08-04T16:35:31.239Z,2.40
2022-08-04T16:36:58.535Z,2.30
2022-08-04T16:38:20.787Z,2.20
2022-08-04T16:39:50.560Z,5.03
2022-08-04T16:41:40.438Z,2.00
2022-08-04T16:43:29.498Z,2.47
2022-08-04T16:45:07.585Z,3.70
2022-08-04T16:47:22.094Z,2.60
2022-08-04T16:48:27.024Z,1.97
2022-08-04T16:50:02.338Z,2.10
2022-08-04T16:51:31.755Z,2.77
2022-08-04T16:52:55.353Z,3.10
2022-08-04T16:54:18.140Z,3.20
2022-08-04T16:55:47.111Z,7.03
2022-08-04T16:57:10.220Z,2.00
2022-08-04T16:58:36.723Z,1.70
2022-08-04T16:59:59.384Z,3.63
2022-08-04T17:01:32.358Z,2.60
2022-08-04T17:02:55.156Z,6.93
2022-08-04T17:04:18.067Z,3.90
2022-08-04T17:05:40.614Z,6.63
2022-08-04T17:07:05.446Z,4.30
2022-08-04T17:08:31.527Z,2.10
2022-08-04T17:09:53.762Z,2.37
2022-08-04T17:11:16.924Z,4.53
2022-08-04T17:12:38.979Z,4.40
2022-08-04T17:14:05.413Z,3.40
2022-08-04T17:15:28.644Z,3.40
2022-08-04T17:16:51.893Z,3.30
2022-08-04T17:18:18.983Z,3.83
2022-08-04T17:19:53.487Z,7.97
2022-08-04T17:21:28.710Z,5.20
2022-08-04T17:22:50.835Z,4.63
2022-08-04T17:24:17.478Z,6.10
2022-08-04T17:25:52.810Z,4.70
2022-08-04T17:28:20.002Z,6.23
2022-08-04T17:28:58.514Z,4.17
2022-08-04T17:30:27.311Z,4.33
2022-08-04T17:31:49.597Z,10.00
2022-08-04T17:33:18.805Z,3.60
2022-08-04T17:34:49.908Z,3.57
2022-08-04T17:36:12.786Z,7.30
2022-08-04T17:37:39.249Z,3.57
2022-08-04T17:39:16.755Z,6.40
2022-08-04T17:40:52.494Z,4.07
2022-08-04T17:42:38.404Z,6.27
2022-08-04T17:44:06.590Z,4.40
2022-08-04T17:45:51.446Z,8.83
2022-08-04T17:47:18.394Z,7.30
2022-08-04T17:48:42.319Z,5.23
2022-08-04T17:50:11.838Z,5.20
2022-08-04T17:52:05.383Z,7.40
2022-08-04T17:54:01.726Z,4.53
2022-08-04T17:55:20.561Z,4.90
2022-08-04T17:56:52.103Z,5.43
2022-08-04T17:58:21.930Z,11.30
2022-08-04T18:01:40.688Z,5.83
2022-08-04T18:03:24.846Z,5.50
2022-08-04T18:05:07.993Z,4.30
2022-08-04T18:06:32.955Z,5.37
2022-08-04T18:08:41.354Z,6.73
2022-08-04T18:10:02.066Z,5.93
2022-08-04T18:11:41.835Z,6.80
2022-08-04T18:13:14.263Z,6.53
2022-08-04T18:14:43.930Z,6.87
2022-08-04T18:16:14.401Z,6.60
2022-08-04T18:18:21.097Z,6.50
2022-08-04T18:19:31.319Z,7.60
2022-08-04T18:20:53.811Z,7.70
2022-08-04T18:22:28.155Z,3.97
2022-08-04T18:23:52.502Z,4.63
2022-08-04T18:25:16.625Z,7.37
2022-08-04T18:26:40.062Z,7.07
2022-08-04T18:28:09.616Z,9.20
2022-08-04T18:29:39.051Z,11.17
2022-08-04T18:31:02.085Z,9.27
2022-08-04T18:32:33.450Z,6.57
2022-08-04T18:33:59.204Z,6.20
2022-08-04T18:35:22.990Z,4.60
2022-08-04T18:36:55.384Z,5.70
2022-08-04T18:38:23.349Z,7.13
2022-08-04T18:40:17.185Z,7.47
2022-08-04T18:41:28.691Z,6.67
2022-08-04T18:43:14.318Z,4.97
2022-08-04T18:44:52.250Z,5.97
2022-08-04T18:46:16.398Z,6.97
2022-08-04T18:47:54.515Z,4.90
2022-08-04T18:50:31.873Z,4.53
2022-08-04T18:51:11.790Z,5.33
2022-08-04T18:52:46.258Z,7.13
2022-08-04T18:54:08.838Z,7.57
2022-08-04T18:55:56.167Z,9.70
2022-08-04T18:57:32.360Z,6.33
2022-08-04T18:59:10.598Z,12.03
2022-08-04T19:00:32.845Z,5.13
2022-08-04T19:02:13.303Z,5.97
2022-08-04T19:03:38.989Z,11.20
2022-08-04T19:05:06.718Z,6.37
2022-08-04T19:06:29.686Z,8.50
2022-08-04T19:08:11.680Z,7.10
2022-08-04T19:11:52.609Z,8.40
2022-08-04T19:12:59.501Z,15.20
2022-08-04T19:14:22.546Z,6.63
2022-08-04T19:15:50.692Z,10.80
2022-08-04T19:17:13.005Z,3.33
2022-08-04T19:18:36.502Z,4.07
2022-08-04T19:19:58.683Z,6.93
2022-08-04T19:22:00.537Z,6.10
2022-08-04T19:24:11.101Z,5.43
2022-08-04T19:24:46.973Z,5.80
2022-08-04T19:26:22.030Z,9.13
2022-08-04T19:27:54.830Z,3.87
2022-08-04T19:29:18.292Z,4.63
2022-08-04T19:30:40.950Z,4.40
2022-08-04T19:32:04.320Z,8.70
2022-08-04T19:33:59.383Z,4.80
2022-08-04T19:35:19.708Z,7.43
2022-08-04T19:36:46.127Z,6.53
2022-08-04T19:38:10.319Z,7.30
2022-08-04T19:39:40.424Z,14.60
2022-08-04T19:41:04.656Z,7.40
2022-08-04T19:42:36.593Z,5.13
2022-08-04T19:43:58.683Z,9.70
2022-08-04T19:45:42.029Z,6.30
2022-08-04T19:48:17.032Z,10.13
2022-08-04T19:48:59.387Z,14.60
2022-08-04T19:50:23.631Z,10.23
2022-08-04T19:51:46.319Z,6.70
2022-08-04T19:53:19.081Z,8.33
2022-08-04T19:54:42.145Z,11.43
2022-08-04T19:56:09.093Z,10.83
2022-08-04T19:57:35.336Z,9.67
2022-08-04T19:58:59.107Z,10.87
2022-08-04T20:00:33.136Z,8.47
2022-08-04T20:01:56.342Z,10.50
2022-08-04T20:05:01.199Z,10.60
2022-08-04T20:06:24.288Z,13.10
2022-08-04T20:07:46.909Z,9.43
2022-08-04T20:09:25.764Z,7.93
2022-08-04T20:10:52.056Z,5.17
2022-08-04T20:12:14.515Z,8.10
2022-08-04T20:15:20.001Z,8.07
2022-08-04T20:16:42.224Z,13.13
2022-08-04T20:18:34.641Z,6.63
2022-08-04T20:19:51.078Z,11.13
2022-08-04T20:21:19.599Z,7.00
2022-08-04T20:22:51.738Z,4.77
2022-08-04T20:24:37.619Z,9.10
2022-08-04T20:25:57.262Z,8.10
2022-08-04T20:27:19.557Z,6.70
2022-08-04T20:28:41.745Z,9.27
2022-08-04T20:30:15.893Z,6.43
2022-08-04T20:31:43.386Z,4.20
2022-08-04T20:33:06.911Z,11.93
2022-08-04T20:34:29.066Z,6.03
2022-08-04T20:36:03.498Z,9.33
2022-08-04T20:37:55.357Z,7.10
2022-08-04T20:39:11.005Z,5.53
2022-08-04T20:40:37.845Z,6.30
2022-08-04T20:42:00.136Z,6.07
2022-08-04T20:43:24.475Z,6.83
2022-08-04T20:44:48.648Z,6.50